Time;durP1;ratioP1;P1;durP2;ratioP2;P2;SDS_P1;SDS_P2;PMS_P1;PMS_P2;Temp;Humidity;BMP_temperature;BMP_pressure;BME280_temperature;BME280_humidity;BME280_pressure;Samples;Min_cycle;Max_cycle;Signal;HPM_P1;HPM_P2
2021/11/08 00:00:45;;;;;;;;;;;;;;;13.16;54.09;101988.22;4146927;28;19929;-67
2021/11/08 00:02:47;;;;;;;;;;;;;;;13.14;54.30;101975.06;4145730;28;20011;-68
2021/11/08 00:04:51;;;;;;;;;;;;;;;13.13;54.14;101970.69;4147030;28;19983;-68
2021/11/08 00:06:53;;;;;;;;;;;;;;;13.13;54.49;101975.09;4146961;28;19921;-67
2021/11/08 00:08:57;;;;;;;;;;;;;;;13.12;54.09;101966.28;4146823;28;19929;-67
2021/11/08 00:10:59;;;;;;;;;;;;;;;13.13;53.94;101969.81;4146905;28;19933;-67
2021/11/08 00:13:04;;;;;;;;;;;;;;;13.12;54.00;101966.28;4146514;28;19937;-68
2021/11/08 00:15:09;;;;;;;;;;;;;;;13.12;54.23;101963.66;4146800;28;19921;-67
2021/11/08 00:21:48;;;;;;;;;;;;;;;13.10;54.18;101955.78;4147002;28;19929;-66
2021/11/08 00:23:51;;;;;;;;;;;;;;;13.11;53.95;101961.94;4146720;28;19922;-67
2021/11/08 00:25:53;;;;;;;;;;;;;;;13.10;54.20;101966.34;4146754;28;19921;-68
2021/11/08 00:27:55;;;;;;;;;;;;;;;13.09;54.18;101967.25;4146613;28;20007;-68
2021/11/08 00:29:57;;;;;;;;;;;;;;;13.08;54.26;101968.16;4146760;28;20405;-67
2021/11/08 00:31:59;;;;;;;;;;;;;;;13.09;54.13;101963.75;4146736;28;20014;-68
2021/11/08 00:34:02;;;;;;;;;;;;;;;13.08;54.05;101973.44;4146157;28;19987;-68
2021/11/08 00:36:04;;;;;;;;;;;;;;;13.08;54.18;101981.34;4146488;28;19932;-68
2021/11/08 00:38:07;;;;;;;;;;;;;;;13.08;54.34;101980.50;4146119;28;20471;-67
2021/11/08 00:40:09;;;;;;;;;;;;;;;13.08;54.07;101962.00;4146478;28;20464;-68
2021/11/08 00:42:12;;;;;;;;;;;;;;;13.07;54.29;101961.16;4146600;28;19965;-68
2021/11/08 00:44:13;;;;;;;;;;;;;;;13.06;54.33;101956.78;4146170;28;19921;-68
2021/11/08 00:46:16;;;;;;;;;;;;;;;13.07;54.05;101963.81;4146437;28;19953;-68
2021/11/08 00:48:20;;;;;;;;;;;;;;;13.07;54.29;101965.56;4146349;28;20325;-68
2021/11/08 00:50:22;;;;;;;;;;;;;;;13.06;54.02;101967.34;4146313;28;19929;-68
2021/11/08 00:52:24;;;;;;;;;;;;;;;13.05;53.94;101960.31;4146207;28;19922;-68
2021/11/08 00:54:26;;;;;;;;;;;;;;;13.06;54.28;101969.09;4145696;28;20285;-68
2021/11/08 00:56:28;;;;;;;;;;;;;;;13.05;54.21;101973.53;4146309;28;20317;-67
2021/11/08 01:00:32;;;;;;;;;;;;;;;13.05;54.31;101967.34;4146171;28;19925;-69
2021/11/08 01:02:35;;;;;;;;;;;;;;;13.04;54.15;101958.59;4146382;28;19925;-66
2021/11/08 01:04:37;;;;;;;;;;;;;;;13.04;54.03;101969.16;4145800;28;19925;-68
2021/11/08 01:06:39;;;;;;;;;;;;;;;13.04;54.15;101979.72;4146203;28;20067;-68
2021/11/08 01:08:42;;;;;;;;;;;;;;;13.03;54.10;101991.19;4145973;28;20393;-67
2021/11/08 01:10:44;;;;;;;;;;;;;;;13.03;54.17;101990.31;4146133;28;19925;-68
2021/11/08 01:12:47;;;;;;;;;;;;;;;13.02;54.19;101984.16;4145954;28;19921;-68
2021/11/08 01:14:49;;;;;;;;;;;;;;;13.02;54.16;101988.59;4145888;28;19925;-68
2021/11/08 01:16:58;;;;;;;;;;;;;;;13.02;54.03;101983.31;4146054;28;19983;-68
2021/11/08 01:19:00;;;;;;;;;;;;;;;13.02;54.17;101978.03;4131225;28;20036;-68
2021/11/08 01:21:02;;;;;;;;;;;;;;;13.02;54.25;101978.03;4142445;28;20302;-68
2021/11/08 01:23:04;;;;;;;;;;;;;;;13.02;54.14;101970.09;4146106;28;20316;-69
2021/11/08 01:25:08;;;;;;;;;;;;;;;13.01;54.38;101965.72;4145656;28;19922;-68
2021/11/08 01:27:10;;;;;;;;;;;;;;;13.01;54.47;101968.34;4145914;28;19925;-67
2021/11/08 01:29:12;;;;;;;;;;;;;;;13.01;54.17;101973.63;4145855;28;19921;-67
2021/11/08 01:31:15;;;;;;;;;;;;;;;13.00;54.04;101975.44;4144606;28;19925;-68
2021/11/08 01:33:18;;;;;;;;;;;;;;;13.00;54.10;101963.97;4145790;28;19928;-67
2021/11/08 01:35:28;;;;;;;;;;;;;;;13.00;54.09;101961.34;4145536;28;19937;-69
2021/11/08 01:37:34;;;;;;;;;;;;;;;12.99;54.21;101965.75;4145855;28;20404;-68
2021/11/08 01:39:37;;;;;;;;;;;;;;;12.99;54.40;101967.53;4145850;28;19921;-66
2021/11/08 01:41:40;;;;;;;;;;;;;;;12.99;54.24;101970.16;4145644;28;19926;-67
2021/11/08 01:43:42;;;;;;;;;;;;;;;12.99;54.06;101967.53;4145909;28;19948;-67
2021/11/08 01:45:44;;;;;;;;;;;;;;;12.97;54.12;101964.94;4145713;28;20025;-67
2021/11/08 01:47:46;;;;;;;;;;;;;;;12.97;54.12;101957.00;4145535;28;19968;-67
2021/11/08 01:49:49;;;;;;;;;;;;;;;12.98;54.01;101963.13;4145667;28;19941;-67
2021/11/08 01:51:51;;;;;;;;;;;;;;;12.97;54.29;101961.44;4145587;28;19925;-66
2021/11/08 01:53:55;;;;;;;;;;;;;;;12.96;54.39;101962.34;4129505;28;19921;-68
2021/11/08 01:55:57;;;;;;;;;;;;;;;12.96;54.07;101957.91;4136811;28;20344;-69
2021/11/08 01:58:00;;;;;;;;;;;;;;;12.95;54.12;101958.81;4145713;28;19922;-68
2021/11/08 02:00:04;;;;;;;;;;;;;;;12.96;54.17;101959.69;4145472;28;19921;-68
2021/11/08 02:02:06;;;;;;;;;;;;;;;12.94;54.28;101955.31;4145650;28;20361;-68
2021/11/08 02:04:08;;;;;;;;;;;;;;;12.94;54.17;101955.31;4146133;28;19921;-67
2021/11/08 02:06:10;;;;;;;;;;;;;;;12.94;54.32;101954.44;4148554;28;19983;-67
2021/11/08 02:08:13;;;;;;;;;;;;;;;12.94;54.07;101944.75;4148844;28;20333;-68
2021/11/08 02:10:16;;;;;;;;;;;;;;;12.93;54.13;101944.81;4148737;28;19948;-67
2021/11/08 02:12:18;;;;;;;;;;;;;;;12.93;54.39;101942.16;4148289;28;19925;-67
2021/11/08 02:14:20;;;;;;;;;;;;;;;12.93;53.94;101945.66;4148516;28;19921;-68
2021/11/08 02:16:22;;;;;;;;;;;;;;;12.92;53.99;101946.56;4148779;28;19928;-67
2021/11/08 02:18:24;;;;;;;;;;;;;;;12.92;54.13;101956.25;4154228;28;19973;-67
2021/11/08 02:20:28;;;;;;;;;;;;;;;12.90;54.14;101945.75;4148687;28;19927;-67
2021/11/08 02:22:30;;;;;;;;;;;;;;;12.91;54.10;101946.59;4148472;28;19925;-68
2021/11/08 02:24:34;;;;;;;;;;;;;;;12.91;54.18;101949.25;4148651;28;20503;-67
2021/11/08 02:26:37;;;;;;;;;;;;;;;12.90;54.25;101942.22;4147102;28;20336;-68
2021/11/08 02:28:40;;;;;;;;;;;;;;;12.90;54.09;101944.88;4148353;28;19933;-66
2021/11/08 02:30:43;;;;;;;;;;;;;;;12.89;53.99;101940.47;4148670;28;19925;-67
2021/11/08 02:32:47;;;;;;;;;;;;;;;12.89;54.27;101953.69;4163229;28;20016;-66
2021/11/08 02:34:49;;;;;;;;;;;;;;;12.90;54.06;101951.03;4148496;28;20412;-67
2021/11/08 02:36:51;;;;;;;;;;;;;;;12.88;53.88;101939.63;4147149;28;19926;-68
2021/11/08 02:38:55;;;;;;;;;;;;;;;12.88;54.48;101929.06;4148212;28;19921;-68
2021/11/08 02:40:58;;;;;;;;;;;;;;;12.88;54.17;101931.72;4147328;28;19985;-68
2021/11/08 02:43:03;;;;;;;;;;;;;;;12.88;54.29;101930.81;4148317;28;19928;-69
2021/11/08 02:45:07;;;;;;;;;;;;;;;12.87;54.07;101931.75;4148460;28;19921;-68
2021/11/08 02:47:11;;;;;;;;;;;;;;;12.88;54.11;101938.75;4148194;28;19921;-68
2021/11/08 02:49:15;;;;;;;;;;;;;;;12.87;54.13;101947.59;4146894;28;19955;-68
2021/11/08 02:53:21;;;;;;;;;;;;;;;12.86;54.13;101949.34;4147811;28;19946;-68
2021/11/08 02:55:25;;;;;;;;;;;;;;;12.85;54.16;101938.84;4148294;28;19921;-68
2021/11/08 02:57:28;;;;;;;;;;;;;;;12.85;54.31;101941.47;4148032;28;19921;-68
2021/11/08 02:59:32;;;;;;;;;;;;;;;12.85;54.41;101944.13;4147899;28;19995;-68
2021/11/08 03:01:34;;;;;;;;;;;;;;;12.84;54.14;101942.38;4147991;28;19921;-68
2021/11/08 03:05:38;;;;;;;;;;;;;;;12.84;54.14;101947.66;4148119;28;19956;-68
2021/11/08 03:07:41;;;;;;;;;;;;;;;12.83;54.19;101948.56;4148027;28;19933;-69
2021/11/08 03:09:48;;;;;;;;;;;;;;;12.82;54.33;101953.00;4148143;28;20428;-68
2021/11/08 03:11:50;;;;;;;;;;;;;;;12.82;54.49;101945.06;4162962;28;20297;-68
2021/11/08 03:14:04;;;;;;;;;;;;;;;12.81;54.35;101945.97;4147480;28;19922;-67
2021/11/08 03:16:19;;;;;;;;;;;;;;;12.82;54.36;101945.06;4146992;28;20415;-68
2021/11/08 03:18:39;;;;;;;;;;;;;;;12.82;54.33;101955.63;4153324;28;19925;-68
2021/11/08 03:20:41;;;;;;;;;;;;;;;12.82;54.10;101949.47;4131556;28;19968;-68
2021/11/08 03:22:54;;;;;;;;;;;;;;;12.81;54.10;101953.91;4131651;28;20517;-69
2021/11/08 03:24:59;;;;;;;;;;;;;;;12.81;54.17;101960.94;4147437;28;19976;-68
2021/11/08 03:27:13;;;;;;;;;;;;;;;12.80;54.47;101959.22;4131603;28;19934;-69
2021/11/08 03:29:16;;;;;;;;;;;;;;;12.80;54.14;101953.94;4140639;28;19967;-68
2021/11/08 03:31:18;;;;;;;;;;;;;;;12.80;53.95;101956.59;4147660;28;19928;-68
2021/11/08 03:33:20;;;;;;;;;;;;;;;12.78;54.17;101962.75;4147588;28;19944;-68
2021/11/08 03:35:24;;;;;;;;;;;;;;;12.80;54.27;101960.06;4146608;28;19929;-68
2021/11/08 03:37:28;;;;;;;;;;;;;;;12.78;54.34;101960.13;4147894;28;20262;-68
2021/11/08 03:39:31;;;;;;;;;;;;;;;12.78;54.28;101956.59;4147470;28;20123;-67
2021/11/08 03:41:34;;;;;;;;;;;;;;;12.77;54.13;101953.09;4147408;28;19922;-68
2021/11/08 03:43:36;;;;;;;;;;;;;;;12.77;54.05;101954.84;4147397;28;19973;-68
2021/11/08 03:45:38;;;;;;;;;;;;;;;12.77;54.08;101960.13;4147119;28;19929;-66
2021/11/08 03:47:41;;;;;;;;;;;;;;;12.77;54.15;101963.66;4131220;28;19929;-67
2021/11/08 03:49:43;;;;;;;;;;;;;;;12.77;54.45;101962.78;4138456;28;20332;-67
2021/11/08 03:51:45;;;;;;;;;;;;;;;12.76;54.17;101972.47;4147379;28;20297;-68
2021/11/08 03:53:47;;;;;;;;;;;;;;;12.75;54.22;101967.25;4147420;28;19921;-68
2021/11/08 03:55:50;;;;;;;;;;;;;;;12.75;54.15;101964.59;4146976;28;19925;-68
2021/11/08 03:57:52;;;;;;;;;;;;;;;12.76;54.12;101961.91;4147125;28;20440;-68
2021/11/08 03:59:54;;;;;;;;;;;;;;;12.75;54.11;101956.69;4146877;28;19991;-68
2021/11/08 04:01:56;;;;;;;;;;;;;;;12.75;53.96;101951.41;4146064;28;19921;-67
2021/11/08 04:03:58;;;;;;;;;;;;;;;12.75;54.13;101946.13;4147273;28;19925;-66
2021/11/08 04:06:00;;;;;;;;;;;;;;;12.74;54.09;101947.88;4146718;28;19932;-67
2021/11/08 04:08:05;;;;;;;;;;;;;;;12.73;54.12;101946.16;4147091;28;19921;-67
2021/11/08 04:10:09;;;;;;;;;;;;;;;12.73;54.34;101948.78;4146861;28;19988;-67
2021/11/08 04:12:11;;;;;;;;;;;;;;;12.74;54.12;101957.59;4145886;28;19921;-67
2021/11/08 04:14:14;;;;;;;;;;;;;;;12.73;54.08;101953.22;4147024;28;19988;-68
2021/11/08 04:16:18;;;;;;;;;;;;;;;12.71;54.33;101947.97;4146462;28;19967;-67
2021/11/08 04:18:22;;;;;;;;;;;;;;;12.72;54.08;101952.34;4158450;28;19921;-68
2021/11/08 04:20:24;;;;;;;;;;;;;;;12.72;54.13;101949.72;4158436;28;19937;-67
2021/11/08 04:22:27;;;;;;;;;;;;;;;12.71;54.25;101944.44;4146614;28;19921;-67
2021/11/08 04:24:29;;;;;;;;;;;;;;;12.71;54.21;101962.94;4146863;28;19921;-68
2021/11/08 04:26:33;;;;;;;;;;;;;;;12.71;54.21;101962.94;4146672;28;20427;-67
2021/11/08 04:28:35;;;;;;;;;;;;;;;12.70;54.07;101962.06;4146476;28;19922;-67
2021/11/08 04:30:43;;;;;;;;;;;;;;;12.69;54.14;101954.19;4146681;28;19944;-67
2021/11/08 04:33:05;;;;;;;;;;;;;;;12.69;54.14;101960.34;4146354;28;19929;-67
2021/11/08 04:35:13;;;;;;;;;;;;;;;12.69;53.97;101956.84;4146967;28;19987;-66
2021/11/08 04:54:37;;;;;;;;;;;;;;;12.66;54.16;101972.75;4146411;28;20404;-67
2021/11/08 05:22:43;;;;;;;;;;;;;;;12.61;54.02;101973.72;4145860;28;19984;-68
2021/11/08 05:31:15;;;;;;;;;;;;;;;12.60;54.03;101972.00;4145737;28;19928;-67
2021/11/08 05:33:17;;;;;;;;;;;;;;;12.60;53.93;101969.34;4145668;28;19925;-68
2021/11/08 05:35:20;;;;;;;;;;;;;;;12.60;54.12;101964.06;4145978;28;19921;-68
2021/11/08 05:37:23;;;;;;;;;;;;;;;12.59;54.00;101969.41;4145982;28;20405;-66
2021/11/08 05:39:25;;;;;;;;;;;;;;;12.59;54.28;101970.25;4146274;28;19921;-68
2021/11/08 05:41:27;;;;;;;;;;;;;;;12.59;54.01;101974.69;4149382;28;19925;-69
2021/11/08 05:43:34;;;;;;;;;;;;;;;12.59;54.21;101980.81;4149015;28;19925;-68
2021/11/08 05:45:38;;;;;;;;;;;;;;;12.59;54.13;101983.44;4149345;28;20242;-67
2021/11/08 05:47:40;;;;;;;;;;;;;;;12.59;53.99;101986.09;4149224;28;19967;-68
2021/11/08 05:49:42;;;;;;;;;;;;;;;12.58;54.19;101980.84;4163869;28;20016;-68
2021/11/08 05:51:44;;;;;;;;;;;;;;;12.58;53.91;101989.63;4149200;28;19925;-67
2021/11/08 05:53:47;;;;;;;;;;;;;;;12.58;53.90;101989.63;4148987;28;19921;-67
2021/11/08 05:56:08;;;;;;;;;;;;;;;12.58;54.29;101983.50;4149090;28;19964;-68
2021/11/08 06:49:47;;;;;;;;;;;;;;;12.51;53.97;102040.81;4140411;28;19925;-66
2021/11/08 06:51:50;;;;;;;;;;;;;;;12.50;54.17;102036.44;4146305;28;19926;-66
2021/11/08 06:53:59;;;;;;;;;;;;;;;12.50;54.01;102046.97;4131897;28;19948;-64
2021/11/08 06:56:02;;;;;;;;;;;;;;;12.51;54.22;102048.72;4140123;28;19921;-68
2021/11/08 06:58:10;;;;;;;;;;;;;;;12.50;53.87;102054.03;4148054;28;19922;-64
2021/11/08 07:00:17;;;;;;;;;;;;;;;12.50;54.03;102046.97;4147916;28;20326;-64
2021/11/08 07:02:20;;;;;;;;;;;;;;;12.50;54.12;102046.13;4147379;28;20478;-64
2021/11/08 07:04:22;;;;;;;;;;;;;;;12.49;53.95;102042.63;4147907;28;19981;-66
2021/11/08 07:06:24;;;;;;;;;;;;;;;12.49;54.29;102055.81;4147764;28;19921;-65
2021/11/08 07:08:26;;;;;;;;;;;;;;;12.49;53.92;102058.47;4148115;28;19922;-64
2021/11/08 07:10:28;;;;;;;;;;;;;;;12.49;53.87;102054.94;4148123;28;19921;-68
2021/11/08 07:12:30;;;;;;;;;;;;;;;12.48;53.98;102062.00;4143498;28;20374;-64
2021/11/08 07:14:33;;;;;;;;;;;;;;;12.48;54.12;102062.00;4131456;28;20329;-66
2021/11/08 07:16:35;;;;;;;;;;;;;;;12.48;54.19;102062.00;4138441;28;20416;-67
2021/11/08 07:18:37;;;;;;;;;;;;;;;12.48;53.80;102059.38;4154083;28;19921;-65
2021/11/08 07:20:39;;;;;;;;;;;;;;;12.48;54.38;102062.00;4147965;28;20337;-64
2021/11/08 07:22:41;;;;;;;;;;;;;;;12.48;54.28;102066.38;4147623;28;19922;-64
2021/11/08 07:24:43;;;;;;;;;;;;;;;12.48;54.03;102069.03;4147586;28;20408;-65
2021/11/08 07:26:47;;;;;;;;;;;;;;;12.49;54.02;102065.50;4147454;28;20400;-65
2021/11/08 07:28:49;;;;;;;;;;;;;;;12.48;54.25;102071.66;4147622;28;19975;-67
2021/11/08 07:30:51;;;;;;;;;;;;;;;12.48;54.06;102066.38;4147650;28;20428;-64
2021/11/08 07:32:53;;;;;;;;;;;;;;;12.47;54.02;102068.19;4144714;28;19922;-67
2021/11/08 07:34:56;;;;;;;;;;;;;;;12.46;54.19;102069.94;4147344;28;19921;-66
2021/11/08 07:36:58;;;;;;;;;;;;;;;12.47;53.71;102073.44;4147362;28;19922;-65
2021/11/08 07:39:00;;;;;;;;;;;;;;;12.46;53.79;102072.56;4147471;28;19975;-66
2021/11/08 07:41:03;;;;;;;;;;;;;;;12.33;54.12;102054.41;4147478;28;20328;-64
2021/11/08 07:43:11;;;;;;;;;;;;;;;12.46;53.96;102083.13;4161322;28;20013;-68
2021/11/08 07:45:13;;;;;;;;;;;;;;;12.47;54.16;102089.28;4147377;28;19933;-64
2021/11/08 07:47:15;;;;;;;;;;;;;;;12.46;54.19;102074.34;4147290;28;20424;-65
2021/11/08 07:49:17;;;;;;;;;;;;;;;12.47;54.10;102078.72;4147151;28;19929;-64
2021/11/08 07:51:19;;;;;;;;;;;;;;;12.45;53.94;102081.41;4147412;28;20393;-64
2021/11/08 07:53:21;;;;;;;;;;;;;;;12.46;54.19;102085.75;4147073;28;19921;-64
2021/11/08 07:55:23;;;;;;;;;;;;;;;12.46;54.19;102093.69;4147353;28;20313;-65
2021/11/08 07:57:25;;;;;;;;;;;;;;;12.46;54.38;102093.69;4147353;28;19926;-64
2021/11/08 07:59:28;;;;;;;;;;;;;;;12.45;53.97;102097.25;4147145;28;20274;-64
2021/11/08 08:01:35;;;;;;;;;;;;;;;12.45;54.01;102089.31;4147013;28;19921;-68
2021/11/08 08:03:37;;;;;;;;;;;;;;;12.46;54.03;102090.19;4145111;28;19921;-67
2021/11/08 08:05:39;;;;;;;;;;;;;;;12.45;54.29;102086.69;4161875;28;19928;-67
2021/11/08 08:07:41;;;;;;;;;;;;;;;12.47;54.15;102094.56;4146915;28;19976;-64
2021/11/08 08:09:43;;;;;;;;;;;;;;;12.46;53.96;102092.81;4147068;28;19922;-65
2021/11/08 08:11:45;;;;;;;;;;;;;;;12.45;54.15;102099.00;4147086;28;19921;-68
2021/11/08 08:13:48;;;;;;;;;;;;;;;12.47;54.17;102094.56;4146762;28;19921;-66
2021/11/08 08:15:51;;;;;;;;;;;;;;;12.46;54.01;102095.47;4146824;28;19928;-65
2021/11/08 08:17:53;;;;;;;;;;;;;;;12.45;53.94;102094.59;4161887;28;20481;-64
2021/11/08 08:19:57;;;;;;;;;;;;;;;12.46;54.14;102100.75;4146865;28;20419;-68
2021/11/08 08:22:01;;;;;;;;;;;;;;;12.45;54.15;102099.00;4147182;28;19928;-64
2021/11/08 08:24:04;;;;;;;;;;;;;;;12.45;54.08;102102.53;4146699;28;19980;-66
2021/11/08 08:26:06;;;;;;;;;;;;;;;12.44;54.22;102100.78;4146705;28;19925;-67
2021/11/08 08:28:08;;;;;;;;;;;;;;;12.45;53.98;102091.09;4146755;28;20389;-65
2021/11/08 08:30:10;;;;;;;;;;;;;;;12.45;54.22;102104.28;4145374;28;19921;-64
2021/11/08 08:32:12;;;;;;;;;;;;;;;12.45;53.87;102101.63;4146684;28;19921;-67
2021/11/08 08:34:22;;;;;;;;;;;;;;;12.45;53.98;102096.34;4146502;28;19929;-68
2021/11/08 08:36:25;;;;;;;;;;;;;;;12.45;53.86;102104.28;4146391;28;19928;-64
2021/11/08 08:38:27;;;;;;;;;;;;;;;12.44;54.22;102106.06;4146616;28;19928;-64
2021/11/08 08:40:29;;;;;;;;;;;;;;;12.45;54.18;102105.16;4146209;28;19921;-68
2021/11/08 08:42:31;;;;;;;;;;;;;;;12.45;54.10;102107.78;4146698;28;19921;-67
2021/11/08 08:44:33;;;;;;;;;;;;;;;12.45;54.26;102106.91;4146183;28;20352;-65
2021/11/08 08:46:35;;;;;;;;;;;;;;;12.45;54.29;102112.19;4146319;28;19921;-66
2021/11/08 08:48:37;;;;;;;;;;;;;;;12.45;54.12;102106.91;4146425;28;19928;-68
2021/11/08 08:50:40;;;;;;;;;;;;;;;12.47;53.94;102110.41;4146011;28;19921;-66
2021/11/08 08:52:42;;;;;;;;;;;;;;;12.48;54.05;102111.25;4161339;28;20508;-63
2021/11/08 08:54:44;;;;;;;;;;;;;;;12.47;53.95;102107.75;4145860;28;19925;-67
2021/11/08 08:56:47;;;;;;;;;;;;;;;12.49;54.27;102118.28;4146079;28;19922;-64
2021/11/08 08:58:50;;;;;;;;;;;;;;;12.49;54.02;102116.53;4146598;28;19928;-63
2021/11/08 09:00:53;;;;;;;;;;;;;;;12.50;54.15;102123.50;4146086;28;19922;-66
2021/11/08 09:02:55;;;;;;;;;;;;;;;12.50;54.37;102118.22;4146047;28;19921;-64
2021/11/08 09:04:57;;;;;;;;;;;;;;;12.52;53.90;102115.59;4145877;28;19928;-68
2021/11/08 09:06:59;;;;;;;;;;;;;;;12.53;54.05;102119.97;4135133;28;19936;-63
2021/11/08 09:09:03;;;;;;;;;;;;;;;12.53;53.91;102118.19;4146263;28;19928;-64
2021/11/08 09:11:05;;;;;;;;;;;;;;;12.52;53.97;102123.50;4145950;28;19921;-64
2021/11/08 09:13:08;;;;;;;;;;;;;;;12.53;54.11;102117.31;4146238;28;19947;-64
2021/11/08 09:15:10;;;;;;;;;;;;;;;12.52;54.12;102118.22;4145306;28;19922;-64
2021/11/08 09:17:13;;;;;;;;;;;;;;;12.53;54.25;102119.97;4148100;28;19921;-63
2021/11/08 09:19:35;;;;;;;;;;;;;;;12.54;53.91;102119.91;4162275;28;20345;-64
2021/11/08 09:21:40;;;;;;;;;;;;;;;12.55;53.99;102118.13;4147324;28;20324;-66
2021/11/08 09:23:42;;;;;;;;;;;;;;;12.55;53.89;102118.13;4146013;28;20660;-68
2021/11/08 09:25:44;;;;;;;;;;;;;;;12.56;54.09;102118.09;4145807;28;19975;-67
2021/11/08 09:27:47;;;;;;;;;;;;;;;12.55;53.96;102121.66;4145785;28;20281;-64
2021/11/08 09:29:50;;;;;;;;;;;;;;;12.57;54.08;102118.97;4145918;28;20304;-65
2021/11/08 09:31:52;;;;;;;;;;;;;;;12.56;54.08;102112.81;4145419;28;20274;-66
2021/11/08 09:34:03;;;;;;;;;;;;;;;12.57;54.03;102116.34;4160883;28;19925;-67
2021/11/08 09:36:07;;;;;;;;;;;;;;;12.58;53.88;102123.38;4145779;28;19952;-66
2021/11/08 09:38:10;;;;;;;;;;;;;;;12.59;53.78;102122.47;4145898;28;19921;-65
2021/11/08 09:40:13;;;;;;;;;;;;;;;12.61;53.61;102126.81;4145766;28;20435;-64
2021/11/08 09:42:16;;;;;;;;;;;;;;;12.62;53.87;102125.03;4145576;28;20298;-64
2021/11/08 09:44:18;;;;;;;;;;;;;;;12.61;54.01;102118.88;4145765;28;20104;-66
2021/11/08 09:46:20;;;;;;;;;;;;;;;12.63;53.82;102126.75;4145590;28;19921;-67
2021/11/08 09:48:22;;;;;;;;;;;;;;;12.62;54.04;102127.66;4134958;28;20551;-65
2021/11/08 09:50:26;;;;;;;;;;;;;;;12.62;54.01;102111.81;4145738;28;20456;-67
2021/11/08 09:52:29;;;;;;;;;;;;;;;12.65;53.96;102119.69;4145519;28;20512;-65
2021/11/08 09:54:40;;;;;;;;;;;;;;;12.63;54.07;102114.44;4145690;28;19926;-68
2021/11/08 09:56:43;;;;;;;;;;;;;;;12.63;53.82;102110.94;4145501;28;19921;-64
2021/11/08 09:58:45;;;;;;;;;;;;;;;12.63;54.08;102119.69;4145745;28;19925;-65
2021/11/08 10:00:58;;;;;;;;;;;;;;;12.65;53.89;102117.06;4145721;28;20523;-64
2021/11/08 10:03:01;;;;;;;;;;;;;;;12.65;53.88;102122.34;4145467;28;19921;-66
2021/11/08 10:05:03;;;;;;;;;;;;;;;12.66;54.07;102115.28;4145672;28;19921;-68
2021/11/08 10:07:05;;;;;;;;;;;;;;;12.66;54.09;102113.53;4145470;28;19925;-67
2021/11/08 10:09:10;;;;;;;;;;;;;;;12.66;53.89;102113.53;4145864;28;19968;-68
2021/11/08 10:11:13;;;;;;;;;;;;;;;12.67;53.93;102112.59;4145651;28;19940;-66
2021/11/08 10:13:18;;;;;;;;;;;;;;;12.68;53.91;102113.47;4145340;28;19921;-70
2021/11/08 10:15:20;;;;;;;;;;;;;;;12.69;53.85;102112.56;4145418;28;19921;-67
2021/11/08 10:17:22;;;;;;;;;;;;;;;12.70;53.82;102114.31;4145263;28;20016;-65
2021/11/08 10:19:26;;;;;;;;;;;;;;;12.71;53.98;102110.75;4134927;28;20271;-68
2021/11/08 10:21:49;;;;;;;;;;;;;;;12.72;53.88;102104.56;4145587;28;19921;-68
2021/11/08 10:23:53;;;;;;;;;;;;;;;12.73;53.85;102101.03;4145328;28;19925;-68
2021/11/08 10:25:55;;;;;;;;;;;;;;;12.73;53.75;102109.81;4131330;28;19933;-70
2021/11/08 10:27:57;;;;;;;;;;;;;;;12.74;53.92;102108.91;4139443;28;19925;-65
2021/11/08 10:30:05;;;;;;;;;;;;;;;12.75;53.80;102113.28;4148571;28;19983;-68
2021/11/08 10:32:08;;;;;;;;;;;;;;;12.77;53.56;102105.34;4148626;28;19948;-68
2021/11/08 10:34:11;;;;;;;;;;;;;;;12.76;53.86;102104.47;4148561;28;19921;-65
2021/11/08 10:36:18;;;;;;;;;;;;;;;12.77;53.76;102111.50;4148482;28;19925;-66
2021/11/08 10:38:25;;;;;;;;;;;;;;;12.79;53.89;102114.09;4148387;28;20329;-67
2021/11/08 10:40:29;;;;;;;;;;;;;;;12.80;53.62;102114.97;4148336;28;19991;-67
2021/11/08 10:42:55;;;;;;;;;;;;;;;12.79;53.90;102111.47;4148435;28;19928;-67
2021/11/08 10:44:58;;;;;;;;;;;;;;;12.81;53.89;102108.78;4148230;28;19929;-66
2021/11/08 10:47:04;;;;;;;;;;;;;;;12.79;53.89;102103.53;4148582;28;19921;-65
2021/11/08 10:49:09;;;;;;;;;;;;;;;12.81;53.71;102106.13;4147920;28;20385;-65
2021/11/08 10:51:13;;;;;;;;;;;;;;;12.80;53.55;102097.34;4148241;28;19921;-66
2021/11/08 10:53:15;;;;;;;;;;;;;;;12.81;53.60;102106.13;4148060;28;19988;-66
2021/11/08 10:55:26;;;;;;;;;;;;;;;12.83;53.66;102110.50;4148166;28;19921;-67
2021/11/08 10:57:29;;;;;;;;;;;;;;;12.84;53.43;102109.56;4148382;28;19921;-65
2021/11/08 10:59:33;;;;;;;;;;;;;;;12.85;53.52;102102.53;4147777;28;19921;-69
2021/11/08 11:01:43;;;;;;;;;;;;;;;12.86;53.55;102096.34;4147847;28;19921;-67
2021/11/08 11:03:49;;;;;;;;;;;;;;;12.87;53.89;102091.03;4147807;28;19939;-66
2021/11/08 11:06:02;;;;;;;;;;;;;;;12.88;53.82;102092.78;4147749;28;19928;-67
2021/11/08 11:08:04;;;;;;;;;;;;;;;12.88;53.46;102090.13;4148032;28;19921;-67
2021/11/08 11:10:24;;;;;;;;;;;;;;;12.89;53.53;102101.56;4147941;28;19921;-65
2021/11/08 11:12:27;;;;;;;;;;;;;;;12.90;53.80;102100.66;4147929;28;19937;-66
2021/11/08 11:14:33;;;;;;;;;;;;;;;12.91;53.38;102097.13;4147648;28;20503;-68
2021/11/08 11:16:37;;;;;;;;;;;;;;;12.91;53.31;102095.31;4147486;28;19975;-67
2021/11/08 11:18:39;;;;;;;;;;;;;;;12.93;53.41;102097.94;4161939;28;19928;-69
2021/11/08 11:20:45;;;;;;;;;;;;;;;12.92;53.42;102099.72;4148375;28;19929;-68
2021/11/08 11:23:01;;;;;;;;;;;;;;;12.93;53.75;102096.16;4147649;28;19968;-69
2021/11/08 11:25:07;;;;;;;;;;;;;;;12.93;53.38;102096.16;4146133;28;19921;-68
2021/11/08 11:27:14;;;;;;;;;;;;;;;12.94;53.33;102084.72;4147764;28;19921;-66
2021/11/08 11:29:25;;;;;;;;;;;;;;;12.94;53.42;102084.72;4147578;28;19921;-68
2021/11/08 11:31:28;;;;;;;;;;;;;;;12.94;53.50;102091.75;4144541;28;19921;-65
2021/11/08 11:33:30;;;;;;;;;;;;;;;12.96;53.63;102094.38;4147526;28;20385;-65
2021/11/08 11:35:40;;;;;;;;;;;;;;;12.96;53.56;102084.66;4147283;28;19921;-68
2021/11/08 11:37:53;;;;;;;;;;;;;;;12.96;53.36;102081.16;4146684;28;19925;-68
2021/11/08 11:40:09;;;;;;;;;;;;;;;12.97;53.50;102080.28;4147257;28;20301;-68
2021/11/08 11:42:11;;;;;;;;;;;;;;;12.97;53.65;102075.84;4136876;28;19928;-67
2021/11/08 11:44:16;;;;;;;;;;;;;;;12.99;53.75;102070.50;4147610;28;19992;-64
2021/11/08 11:46:23;;;;;;;;;;;;;;;12.98;53.37;102072.28;4147258;28;20373;-64
2021/11/08 11:48:27;;;;;;;;;;;;;;;12.99;53.35;102067.88;4147149;28;19929;-67
2021/11/08 11:50:44;;;;;;;;;;;;;;;12.99;53.63;102066.13;4146849;28;19928;-65
2021/11/08 11:52:46;;;;;;;;;;;;;;;12.99;53.34;102067.88;4147121;28;19922;-67
2021/11/08 11:54:48;;;;;;;;;;;;;;;13.00;53.36;102064.34;4147258;28;19921;-64
2021/11/08 11:56:52;;;;;;;;;;;;;;;13.00;53.59;102065.22;4145490;28;19921;-64
2021/11/08 11:58:55;;;;;;;;;;;;;;;13.01;53.35;102061.63;4146879;28;19928;-64
2021/11/08 12:00:58;;;;;;;;;;;;;;;13.01;53.38;102052.88;4146536;28;19921;-65
2021/11/08 12:03:01;;;;;;;;;;;;;;;13.01;53.47;102063.44;4146767;28;19936;-67
2021/11/08 12:05:04;;;;;;;;;;;;;;;13.02;53.22;102057.25;4146765;28;19928;-67
2021/11/08 12:07:08;;;;;;;;;;;;;;;13.01;53.21;102050.22;4146420;28;20306;-68
2021/11/08 12:09:13;;;;;;;;;;;;;;;13.03;53.08;102045.78;4146878;28;19929;-65
2021/11/08 12:11:25;;;;;;;;;;;;;;;13.02;53.24;102044.91;4146669;28;19980;-65
2021/11/08 12:13:29;;;;;;;;;;;;;;;13.03;53.21;102043.13;4146753;28;20381;-65
2021/11/08 12:15:32;;;;;;;;;;;;;;;13.03;53.10;102041.34;4146744;28;19928;-67
2021/11/08 12:17:40;;;;;;;;;;;;;;;13.04;53.20;102042.25;4151555;28;19921;-66
2021/11/08 12:19:44;;;;;;;;;;;;;;;13.06;53.18;102048.34;4130586;28;20393;-67
2021/11/08 12:21:47;;;;;;;;;;;;;;;13.05;52.90;102036.91;4137845;28;20301;-68
2021/11/08 12:23:49;;;;;;;;;;;;;;;13.06;53.27;102035.13;4146872;28;19921;-66
2021/11/08 12:25:52;;;;;;;;;;;;;;;13.07;52.89;102028.94;4146642;28;19928;-66
2021/11/08 12:27:56;;;;;;;;;;;;;;;13.06;52.74;102030.72;4146098;28;19929;-65